सभी
Enua Airport (Atiu (Enua Manu)) AIU मौसम
|
Atiu (Enua Manu) (AIU / NCAT)
स्वच्छ आकाश
हल्की हवाएं |
|
29 °C |
There is no TAF data available at AIU or any nearby airports.
Recent AIU METAR history
| Date | Time (-10) | Flight Rules | Wind Dir. | Speed | Type | Height AGL (ft) | Visibility | Temp (°C) | Temp (°F) | Dew Point (°C) | Dew Point (°F) | Rel. Humid. | Pressure | Density Altitude | Remarks |
|---|---|---|---|---|---|---|---|---|---|---|---|---|---|---|---|
| gap in available data | |||||||||||||||
| 03-मई | 11:00 | n/a | 320° | 4 kt | Missing | 29° | 84° | 25° | 77° | 79% | 1011 mb | 1,796 ft | |||
| 03-मई | 10:00 | n/a | 320° | 3 kt | Missing | 27° | 80° | 24° | 75° | 84% | 1011 mb | 1,556 ft | |||
| 03-मई | 09:00 | n/a | 310° | 2 kt | Missing | 26° | 78° | 24° | 75° | 89% | 1010 mb | 1,466 ft | |||
| 03-मई | 08:00 | n/a | 310° | 2 kt | Missing | 26° | 78° | 24° | 75° | 89% | 1010 mb | 1,466 ft | |||
| 03-मई | 07:00 | n/a | 300° | 2 kt | Missing | 25° | 77° | 23° | 73° | 89% | 1009 mb | 1,375 ft | |||
| 03-मई | 06:00 | n/a | 300° | 2 kt | Missing | 25° | 77° | 23° | 73° | 89% | 1009 mb | 1,375 ft | |||
| 03-मई | 05:00 | n/a | 300° | 2 kt | Missing | 25° | 77° | 23° | 73° | 89% | 1009 mb | 1,375 ft | |||
| 03-मई | 04:00 | n/a | 310° | 2 kt | Missing | 26° | 78° | 23° | 73° | 84% | 1009 mb | 1,495 ft | |||
| 03-मई | 03:00 | n/a | 310° | 2 kt | Missing | 25° | 77° | 24° | 75° | 94% | 1009 mb | 1,375 ft | |||
| 03-मई | 02:00 | n/a | 300° | 2 kt | Missing | 26° | 78° | 24° | 75° | 89% | 1009 mb | 1,495 ft | |||
| 03-मई | 01:00 | n/a | 290° | 1 kt | Missing | 25° | 77° | 24° | 75° | 94% | 1009 mb | 1,375 ft | |||
| 03-मई | 00:00 | n/a | 350° | 2 kt | Missing | 26° | 78° | 24° | 75° | 89% | 1009 mb | 1,495 ft | |||
| 02-मई | 23:00 | n/a | 300° | 1 kt | Missing | 25° | 77° | 23° | 73° | 89% | 1009 mb | 1,375 ft | |||
| 02-मई | 22:00 | n/a | 340° | 1 kt | Missing | 25° | 77° | 23° | 73° | 89% | 1009 mb | 1,375 ft | |||
| 02-मई | 21:00 | n/a | 330° | 1 kt | Missing | 26° | 78° | 23° | 73° | 84% | 1010 mb | 1,466 ft | |||
| 02-मई | 20:00 | n/a | 310° | 2 kt | Missing | 26° | 78° | 23° | 73° | 84% | 1009 mb | 1,495 ft | |||
| 02-मई | 19:00 | n/a | 300° | 3 kt | Missing | 26° | 78° | 24° | 75° | 89% | 1009 mb | 1,495 ft | |||
| 02-मई | 18:00 | n/a | 320° | 3 kt | Missing | 26° | 78° | 24° | 75° | 89% | 1009 mb | 1,495 ft | |||
| 02-मई | 17:00 | n/a | 350° | 6 kt | Missing | 27° | 80° | 24° | 75° | 84% | 1009 mb | 1,615 ft | |||
| 02-मई | 16:00 | n/a | 360° | 5 kt | Missing | 27° | 80° | 23° | 73° | 79% | 1009 mb | 1,615 ft | |||
| 02-मई | 15:00 | n/a | 360° | 4 kt | Missing | 27° | 80° | 24° | 75° | 84% | 1009 mb | 1,615 ft | |||
| 02-मई | 14:00 | n/a | 340° | 4 kt | Missing | 28° | 82° | 25° | 77° | 84% | 1010 mb | 1,706 ft | |||
| 02-मई | 13:00 | n/a | 20° | 6 kt | Missing | 28° | 82° | 24° | 75° | 79% | 1010 mb | 1,706 ft | |||
| 02-मई | 12:00 | n/a | 30° | 7 kt | Missing | 28° | 82° | 25° | 77° | 84% | 1011 mb | 1,676 ft | |||
लॉगिन
| Your browser is unsupported. अपना ब्राऊजर अपग्रेड करें |
